Gil Vicente — CSKG — position and weather

sailwx.info

Track history (hours):
 
Tides and Currents Weather Stations Pressure Air Temp Water Temp Dewpoint Dewpoint Depression Visibility Wind Speed Wind Dir Waves Ship Positions

Gil Vicente

Last reported at 2016-Aug-26 11:33 UTC. Time now 2016-Aug-26 11:55 UTC.
Position N 38°39' W 009°05'.

Length 49 m.

Type: Passenger vessel. MMSI: 263701390.

Date/timePositionNaut miles runAvg speedWind from/ knotsBaromVisibWave heightAir tempDewpointWater temp
2016-Aug-26 11:33N 38°39' W 009°05'0 0.0
2016-Aug-26 10:32N 38°39' W 009°05'1 0.9
2016-Aug-26 09:33N 38°40' W 009°06'0 0.5
2016-Aug-26 08:33N 38°39' W 009°05'4 3.5
2016-Aug-26 07:33N 38°42' W 009°08'0 0.3
2016-Aug-26 06:33N 38°42' W 009°08'0 0.0
2016-Aug-25 18:33N 38°42' W 009°08'0 0.4
2016-Aug-25 17:33N 38°42' W 009°08'3 2.5
2016-Aug-25 16:33N 38°40' W 009°07'2 1.9
2016-Aug-25 15:33N 38°39' W 009°05'2 1.6
2016-Aug-25 14:33N 38°40' W 009°07'2 1.7
2016-Aug-25 13:33N 38°39' W 009°05'0 0.0
2016-Aug-25 12:33N 38°39' W 009°05'0 0.0
2016-Aug-25 11:33N 38°39' W 009°05'0 0.0
2016-Aug-25 10:33N 38°39' W 009°05'0 0.0
2016-Aug-25 09:33N 38°39' W 009°05'2 1.5
2016-Aug-25 08:33N 38°40' W 009°06'0 0.2
2016-Aug-25 07:33N 38°40' W 009°07'2 1.8
2016-Aug-25 06:33N 38°39' W 009°05'0 0.0
2016-Aug-25 04:33N 38°39' W 009°05'0 0.0
2016-Aug-24 23:04N 38°39' W 009°05'4 7.5
2016-Aug-24 22:33N 38°42' W 009°08'1 1.3
2016-Aug-24 21:33N 38°41' W 009°08'0 0.1
2016-Aug-24 20:33N 38°41' W 009°08'3 2.7
2016-Aug-24 19:33N 38°39' W 009°05'1 0.5
2016-Aug-24 18:33N 38°39' W 009°05'1 0.5
2016-Aug-24 17:33N 38°39' W 009°05'1 0.9
2016-Aug-24 16:33N 38°39' W 009°06'1 0.8
2016-Aug-24 15:33N 38°39' W 009°05'0 0.0
2016-Aug-24 08:33N 38°39' W 009°05'0 0.2
2016-Aug-24 07:33N 38°39' W 009°05'0 0.3
2016-Aug-24 06:33N 38°39' W 009°05'4 0.4
2016-Aug-23 19:32N 38°42' W 009°08'0 0.0
2016-Aug-23 18:33N 38°42' W 009°08'4 4.1
2016-Aug-23 17:33N 38°39' W 009°05'0 0.0
2016-Aug-23 16:33N 38°39' W 009°05'4 4.0
2016-Aug-23 15:33N 38°42' W 009°08'1 1.0
2016-Aug-23 14:33N 38°41' W 009°08'0 0.2
2016-Aug-23 13:33N 38°41' W 009°08'0 0.3
2016-Aug-23 12:33N 38°41' W 009°08'0 0.2
2016-Aug-23 11:33N 38°41' W 009°08'0 0.1
2016-Aug-23 10:33N 38°41' W 009°08'3 3.0
2016-Aug-23 09:33N 38°39' W 009°05'4 4.1
2016-Aug-23 08:33N 38°42' W 009°08'0 0.0
2016-Aug-23 07:33N 38°42' W 009°08'2 2.4
2016-Aug-23 06:33N 38°40' W 009°07'2 2.0
2016-Aug-23 05:33N 38°39' W 009°05'4 0.3
2016-Aug-22 18:33N 38°42' W 009°08'0 0.3
2016-Aug-22 17:33N 38°42' W 009°08'2 2.4
2016-Aug-22 16:33N 38°40' W 009°07'2 1.5
2016-Aug-22 15:33N 38°39' W 009°06'1 0.6
2016-Aug-22 14:33N 38°40' W 009°06'1 0.3
2016-Aug-22 10:21N 38°39' W 009°05'1 1.7
2016-Aug-22 09:33N 38°40' W 009°06'0 0.1
2016-Aug-22 08:33N 38°40' W 009°06'1 0.6
2016-Aug-22 07:33N 38°40' W 009°07'2 1.9
2016-Aug-22 06:33N 38°39' W 009°05'0 0.0
2016-Aug-22 05:33N 38°39' W 009°05'0 0.0
2016-Aug-22 04:33N 38°39' W 009°05'3 0.4
2016-Aug-21 20:33N 38°41' W 009°08'3 2.8
2016-Aug-21 19:33N 38°39' W 009°05'1 1.5
2016-Aug-21 18:33N 38°40' W 009°06'0 0.3
2016-Aug-21 17:33N 38°40' W 009°06'0 0.2
2016-Aug-21 16:33N 38°39' W 009°06'0 0.4
2016-Aug-21 15:33N 38°40' W 009°06'0 0.2
2016-Aug-21 14:33N 38°40' W 009°06'0 0.4
2016-Aug-21 13:33N 38°40' W 009°06'0 0.3
2016-Aug-21 12:33N 38°40' W 009°06'1 1.3
2016-Aug-21 11:34N 38°39' W 009°05'0 0.0
2016-Aug-21 10:33N 38°39' W 009°05'0 0.0
2016-Aug-21 09:33N 38°39' W 009°05'0 0.0
2016-Aug-21 08:34N 38°39' W 009°05'0 0.0
2016-Aug-21 07:33N 38°39' W 009°05'0 0.0
2016-Aug-21 06:33N 38°39' W 009°05'1 1.1
2016-Aug-21 05:33N 38°39' W 009°06'1 1.0
2016-Aug-21 04:32N 38°39' W 009°05'3 0.4
2016-Aug-20 20:33N 38°41' W 009°08'3 3.1
2016-Aug-20 19:33N 38°39' W 009°05'2 1.6
2016-Aug-20 18:33N 38°40' W 009°07'0 0.4
2016-Aug-20 17:33N 38°40' W 009°06'0 0.3
2016-Aug-20 16:33N 38°40' W 009°06'0 0.2
2016-Aug-20 15:33N 38°40' W 009°06'0 0.3
2016-Aug-20 14:33N 38°40' W 009°06'1 0.6
2016-Aug-20 13:33N 38°39' W 009°06'0 0.0
2016-Aug-20 12:33N 38°39' W 009°06'1 0.9
2016-Aug-20 11:32N 38°39' W 009°05'0 0.0
2016-Aug-20 10:33N 38°39' W 009°05'3 3.1
2016-Aug-20 09:33N 38°41' W 009°08'0 0.1
2016-Aug-20 08:33N 38°41' W 009°08'0 0.2
2016-Aug-20 07:33N 38°41' W 009°08'3 3.0
2016-Aug-20 06:33N 38°39' W 009°05'1 1.4
2016-Aug-20 05:32N 38°40' W 009°06'1 1.4
2016-Aug-20 04:33N 38°39' W 009°05'0 0.0
2016-Aug-20 03:33N 38°39' W 009°05'0 0.0
2016-Aug-20 02:33N 38°39' W 009°05'0 0.0
2016-Aug-20 01:33N 38°39' W 009°05'0 0.0
2016-Aug-20 00:33N 38°39' W 009°05'0 0.0
2016-Aug-19 23:33N 38°39' W 009°05'4 4.2
2016-Aug-19 22:33N 38°42' W 009°08'1 1.4
2016-Aug-19 21:33N 38°41' W 009°08'0 0.1
2016-Aug-19 20:33N 38°41' W 009°08'3 2.9
2016-Aug-19 19:33N 38°39' W 009°05'0 0.1
2016-Aug-19 18:33N 38°39' W 009°05'0 0.1
2016-Aug-19 17:33N 38°39' W 009°05'2 1.5
2016-Aug-19 16:33N 38°40' W 009°06'1 1.4
2016-Aug-19 15:32N 38°39' W 009°05'0 0.0
2016-Aug-19 08:33N 38°39' W 009°05'0 0.1
2016-Aug-19 07:32N 38°39' W 009°05'0 0.0
2016-Aug-19 06:33N 38°39' W 009°05'0 0.0
2016-Aug-19 05:33N 38°39' W 009°05'4 0.4
2016-Aug-18 19:34N 38°42' W 009°08'0 0.2
2016-Aug-18 18:33N 38°42' W 009°08'4 4.1
2016-Aug-18 17:33N 38°39' W 009°05'0 0.0
2016-Aug-18 16:33N 38°39' W 009°05'4 4.1
2016-Aug-18 15:33N 38°42' W 009°08'2 1.5
2016-Aug-18 14:33N 38°41' W 009°08'0 0.1
2016-Aug-18 13:33N 38°41' W 009°08'0 0.1
2016-Aug-18 12:33N 38°41' W 009°08'1 0.8
2016-Aug-18 11:32N 38°42' W 009°08'1 0.9
2016-Aug-18 10:33N 38°41' W 009°08'3 2.7
2016-Aug-18 09:33N 38°39' W 009°05'4 4.1
2016-Aug-18 08:34N 38°42' W 009°08'0 0.0
2016-Aug-18 07:33N 38°42' W 009°08'3 2.6
2016-Aug-18 06:33N 38°40' W 009°07'2 1.8
2016-Aug-18 05:33N 38°39' W 009°05'0 0.0
2016-Aug-18 04:31N 38°39' W 009°05'4 0.7
2016-Aug-17 22:32N 38°42' W 009°08'2 1.7
2016-Aug-17 21:33N 38°41' W 009°08'0 0.2
2016-Aug-17 20:33N 38°41' W 009°08'3 2.9
2016-Aug-17 19:33N 38°39' W 009°05'0 0.3
2016-Aug-17 18:32N 38°39' W 009°05'0 0.2
2016-Aug-17 17:33N 38°39' W 009°05'1 1.5
2016-Aug-17 16:33N 38°40' W 009°06'2 0.2
2016-Aug-17 09:33N 38°41' W 009°08'3 3.0
2016-Aug-17 08:33N 38°39' W 009°05'1 1.2
2016-Aug-17 07:33N 38°40' W 009°06'3 3.1
2016-Aug-17 06:33N 38°42' W 009°08'0 0.1
2016-Aug-17 05:33N 38°42' W 009°08'0 0.0
2016-Aug-17 04:33N 38°42' W 009°08'4 4.1
2016-Aug-17 03:33N 38°39' W 009°05'0 0.0
2016-Aug-17 02:33N 38°39' W 009°05'0 0.0
2016-Aug-17 01:32N 38°39' W 009°05'1 0.5
2016-Aug-17 00:33N 38°39' W 009°05'0 0.5
2016-Aug-16 23:32N 38°39' W 009°05'0 0.4
2016-Aug-16 22:33N 38°39' W 009°05'1 1.1
2016-Aug-16 21:33N 38°40' W 009°06'0 0.0
2016-Aug-16 20:33N 38°40' W 009°07'2 1.6
2016-Aug-16 19:32N 38°39' W 009°05'0 0.0
2016-Aug-16 18:33N 38°39' W 009°05'2 1.5
2016-Aug-16 17:33N 38°40' W 009°06'3 2.7
2016-Aug-16 16:32N 38°42' W 009°08'4 4.0
2016-Aug-16 15:32N 38°39' W 009°05'  
Track history (hours):
 
Tides and Currents Weather Stations Pressure Air Temp Water Temp Dewpoint Dewpoint Depression Visibility Wind Speed Wind Dir Waves Ship Positions

Gil Vicente

Last reported at 2016-Aug-26 11:33 UTC. Time now 2016-Aug-26 11:55 UTC.
Position N 38°39' W 009°05'.

Length 49 m.

Type: Passenger vessel. MMSI: 263701390.

Date/timePositionNaut miles runAvg speedWind from/ knotsBaromVisibWave heightAir tempDewpointWater temp
2016-Aug-26 11:33N 38°39' W 009°05'0 0.0
2016-Aug-26 10:32N 38°39' W 009°05'1 0.9
2016-Aug-26 09:33N 38°40' W 009°06'0 0.5
2016-Aug-26 08:33N 38°39' W 009°05'4 3.5
2016-Aug-26 07:33N 38°42' W 009°08'0 0.3
2016-Aug-26 06:33N 38°42' W 009°08'0 0.0
2016-Aug-25 18:33N 38°42' W 009°08'0 0.4
2016-Aug-25 17:33N 38°42' W 009°08'3 2.5
2016-Aug-25 16:33N 38°40' W 009°07'2 1.9
2016-Aug-25 15:33N 38°39' W 009°05'2 1.6
2016-Aug-25 14:33N 38°40' W 009°07'2 1.7
2016-Aug-25 13:33N 38°39' W 009°05'0 0.0
2016-Aug-25 12:33N 38°39' W 009°05'0 0.0
2016-Aug-25 11:33N 38°39' W 009°05'0 0.0
2016-Aug-25 10:33N 38°39' W 009°05'0 0.0
2016-Aug-25 09:33N 38°39' W 009°05'2 1.5
2016-Aug-25 08:33N 38°40' W 009°06'0 0.2
2016-Aug-25 07:33N 38°40' W 009°07'2 1.8
2016-Aug-25 06:33N 38°39' W 009°05'0 0.0
2016-Aug-25 04:33N 38°39' W 009°05'0 0.0
2016-Aug-24 23:04N 38°39' W 009°05'4 7.5
2016-Aug-24 22:33N 38°42' W 009°08'1 1.3
2016-Aug-24 21:33N 38°41' W 009°08'0 0.1
2016-Aug-24 20:33N 38°41' W 009°08'3 2.7
2016-Aug-24 19:33N 38°39' W 009°05'1 0.5
2016-Aug-24 18:33N 38°39' W 009°05'1 0.5
2016-Aug-24 17:33N 38°39' W 009°05'1 0.9
2016-Aug-24 16:33N 38°39' W 009°06'1 0.8
2016-Aug-24 15:33N 38°39' W 009°05'0 0.0
2016-Aug-24 08:33N 38°39' W 009°05'0 0.2
2016-Aug-24 07:33N 38°39' W 009°05'0 0.3
2016-Aug-24 06:33N 38°39' W 009°05'4 0.4
2016-Aug-23 19:32N 38°42' W 009°08'0 0.0
2016-Aug-23 18:33N 38°42' W 009°08'4 4.1
2016-Aug-23 17:33N 38°39' W 009°05'0 0.0
2016-Aug-23 16:33N 38°39' W 009°05'4 4.0
2016-Aug-23 15:33N 38°42' W 009°08'1 1.0
2016-Aug-23 14:33N 38°41' W 009°08'0 0.2
2016-Aug-23 13:33N 38°41' W 009°08'0 0.3
2016-Aug-23 12:33N 38°41' W 009°08'0 0.2
2016-Aug-23 11:33N 38°41' W 009°08'0 0.1
2016-Aug-23 10:33N 38°41' W 009°08'3 3.0
2016-Aug-23 09:33N 38°39' W 009°05'4 4.1
2016-Aug-23 08:33N 38°42' W 009°08'0 0.0
2016-Aug-23 07:33N 38°42' W 009°08'2 2.4
2016-Aug-23 06:33N 38°40' W 009°07'2 2.0
2016-Aug-23 05:33N 38°39' W 009°05'4 0.3
2016-Aug-22 18:33N 38°42' W 009°08'0 0.3
2016-Aug-22 17:33N 38°42' W 009°08'2 2.4
2016-Aug-22 16:33N 38°40' W 009°07'2 1.5
2016-Aug-22 15:33N 38°39' W 009°06'1 0.6
2016-Aug-22 14:33N 38°40' W 009°06'1 0.3
2016-Aug-22 10:21N 38°39' W 009°05'1 1.7
2016-Aug-22 09:33N 38°40' W 009°06'0 0.1
2016-Aug-22 08:33N 38°40' W 009°06'1 0.6
2016-Aug-22 07:33N 38°40' W 009°07'2 1.9
2016-Aug-22 06:33N 38°39' W 009°05'0 0.0
2016-Aug-22 05:33N 38°39' W 009°05'0 0.0
2016-Aug-22 04:33N 38°39' W 009°05'3 0.4
2016-Aug-21 20:33N 38°41' W 009°08'3 2.8
2016-Aug-21 19:33N 38°39' W 009°05'1 1.5
2016-Aug-21 18:33N 38°40' W 009°06'0 0.3
2016-Aug-21 17:33N 38°40' W 009°06'0 0.2
2016-Aug-21 16:33N 38°39' W 009°06'0 0.4
2016-Aug-21 15:33N 38°40' W 009°06'0 0.2
2016-Aug-21 14:33N 38°40' W 009°06'0 0.4
2016-Aug-21 13:33N 38°40' W 009°06'0 0.3
2016-Aug-21 12:33N 38°40' W 009°06'1 1.3
2016-Aug-21 11:34N 38°39' W 009°05'0 0.0
2016-Aug-21 10:33N 38°39' W 009°05'0 0.0
2016-Aug-21 09:33N 38°39' W 009°05'0 0.0
2016-Aug-21 08:34N 38°39' W 009°05'0 0.0
2016-Aug-21 07:33N 38°39' W 009°05'0 0.0
2016-Aug-21 06:33N 38°39' W 009°05'1 1.1
2016-Aug-21 05:33N 38°39' W 009°06'1 1.0
2016-Aug-21 04:32N 38°39' W 009°05'3 0.4
2016-Aug-20 20:33N 38°41' W 009°08'3 3.1
2016-Aug-20 19:33N 38°39' W 009°05'2 1.6
2016-Aug-20 18:33N 38°40' W 009°07'0 0.4
2016-Aug-20 17:33N 38°40' W 009°06'0 0.3
2016-Aug-20 16:33N 38°40' W 009°06'0 0.2
2016-Aug-20 15:33N 38°40' W 009°06'0 0.3
2016-Aug-20 14:33N 38°40' W 009°06'1 0.6
2016-Aug-20 13:33N 38°39' W 009°06'0 0.0
2016-Aug-20 12:33N 38°39' W 009°06'1 0.9
2016-Aug-20 11:32N 38°39' W 009°05'0 0.0
2016-Aug-20 10:33N 38°39' W 009°05'3 3.1
2016-Aug-20 09:33N 38°41' W 009°08'0 0.1
2016-Aug-20 08:33N 38°41' W 009°08'0 0.2
2016-Aug-20 07:33N 38°41' W 009°08'3 3.0
2016-Aug-20 06:33N 38°39' W 009°05'1 1.4
2016-Aug-20 05:32N 38°40' W 009°06'1 1.4
2016-Aug-20 04:33N 38°39' W 009°05'0 0.0
2016-Aug-20 03:33N 38°39' W 009°05'0 0.0
2016-Aug-20 02:33N 38°39' W 009°05'0 0.0
2016-Aug-20 01:33N 38°39' W 009°05'0 0.0
2016-Aug-20 00:33N 38°39' W 009°05'0 0.0
2016-Aug-19 23:33N 38°39' W 009°05'4 4.2
2016-Aug-19 22:33N 38°42' W 009°08'1 1.4
2016-Aug-19 21:33N 38°41' W 009°08'0 0.1
2016-Aug-19 20:33N 38°41' W 009°08'3 2.9
2016-Aug-19 19:33N 38°39' W 009°05'0 0.1
2016-Aug-19 18:33N 38°39' W 009°05'0 0.1
2016-Aug-19 17:33N 38°39' W 009°05'2 1.5
2016-Aug-19 16:33N 38°40' W 009°06'1 1.4
2016-Aug-19 15:32N 38°39' W 009°05'0 0.0
2016-Aug-19 08:33N 38°39' W 009°05'0 0.1
2016-Aug-19 07:32N 38°39' W 009°05'0 0.0
2016-Aug-19 06:33N 38°39' W 009°05'0 0.0
2016-Aug-19 05:33N 38°39' W 009°05'4 0.4
2016-Aug-18 19:34N 38°42' W 009°08'0 0.2
2016-Aug-18 18:33N 38°42' W 009°08'4 4.1
2016-Aug-18 17:33N 38°39' W 009°05'0 0.0
2016-Aug-18 16:33N 38°39' W 009°05'4 4.1
2016-Aug-18 15:33N 38°42' W 009°08'2 1.5
2016-Aug-18 14:33N 38°41' W 009°08'0 0.1
2016-Aug-18 13:33N 38°41' W 009°08'0 0.1
2016-Aug-18 12:33N 38°41' W 009°08'1 0.8
2016-Aug-18 11:32N 38°42' W 009°08'1 0.9
2016-Aug-18 10:33N 38°41' W 009°08'3 2.7
2016-Aug-18 09:33N 38°39' W 009°05'4 4.1
2016-Aug-18 08:34N 38°42' W 009°08'0 0.0
2016-Aug-18 07:33N 38°42' W 009°08'3 2.6
2016-Aug-18 06:33N 38°40' W 009°07'2 1.8
2016-Aug-18 05:33N 38°39' W 009°05'0 0.0
2016-Aug-18 04:31N 38°39' W 009°05'4 0.7
2016-Aug-17 22:32N 38°42' W 009°08'2 1.7
2016-Aug-17 21:33N 38°41' W 009°08'0 0.2
2016-Aug-17 20:33N 38°41' W 009°08'3 2.9
2016-Aug-17 19:33N 38°39' W 009°05'0 0.3
2016-Aug-17 18:32N 38°39' W 009°05'0 0.2
2016-Aug-17 17:33N 38°39' W 009°05'1 1.5
2016-Aug-17 16:33N 38°40' W 009°06'2 0.2
2016-Aug-17 09:33N 38°41' W 009°08'3 3.0
2016-Aug-17 08:33N 38°39' W 009°05'1 1.2
2016-Aug-17 07:33N 38°40' W 009°06'3 3.1
2016-Aug-17 06:33N 38°42' W 009°08'0 0.1
2016-Aug-17 05:33N 38°42' W 009°08'0 0.0
2016-Aug-17 04:33N 38°42' W 009°08'4 4.1
2016-Aug-17 03:33N 38°39' W 009°05'0 0.0
2016-Aug-17 02:33N 38°39' W 009°05'0 0.0
2016-Aug-17 01:32N 38°39' W 009°05'1 0.5
2016-Aug-17 00:33N 38°39' W 009°05'0 0.5
2016-Aug-16 23:32N 38°39' W 009°05'0 0.4
2016-Aug-16 22:33N 38°39' W 009°05'1 1.1
2016-Aug-16 21:33N 38°40' W 009°06'0 0.0
2016-Aug-16 20:33N 38°40' W 009°07'2 1.6
2016-Aug-16 19:32N 38°39' W 009°05'0 0.0
2016-Aug-16 18:33N 38°39' W 009°05'2 1.5
2016-Aug-16 17:33N 38°40' W 009°06'3 2.7
2016-Aug-16 16:32N 38°42' W 009°08'4 4.0
2016-Aug-16 15:32N 38°39' W 009°05'  

Dump ship's entire track history